createdAt,value
2018-12-05T00:01:16.164Z,2.30
2018-12-05T00:03:44.342Z,2.30
2018-12-05T00:06:12.619Z,2.30
2018-12-05T00:08:40.770Z,2.20
2018-12-05T00:11:09.248Z,2.20
2018-12-05T00:13:37.359Z,2.10
2018-12-05T00:16:05.557Z,2.00
2018-12-05T00:18:33.713Z,1.90
2018-12-05T00:21:01.895Z,1.90
2018-12-05T00:23:30.139Z,1.80
2018-12-05T00:25:58.419Z,1.90
2018-12-05T00:28:26.675Z,1.90
2018-12-05T00:30:54.862Z,1.90
2018-12-05T00:33:23.330Z,1.90
2018-12-05T00:35:51.473Z,1.90
2018-12-05T00:38:19.620Z,1.90
2018-12-05T00:40:47.833Z,1.90
2018-12-05T00:43:15.982Z,1.90
2018-12-05T00:45:44.117Z,1.90
2018-12-05T00:48:13.076Z,1.80
2018-12-05T00:50:41.315Z,1.80
2018-12-05T00:53:09.454Z,1.80
2018-12-05T00:55:37.626Z,1.70
2018-12-05T00:58:05.758Z,1.70
2018-12-05T01:00:34.061Z,1.70
2018-12-05T01:03:02.278Z,1.60
2018-12-05T01:05:30.399Z,1.50
2018-12-05T01:07:59.620Z,1.40
2018-12-05T01:10:27.867Z,1.30
2018-12-05T01:12:56.069Z,1.30
2018-12-05T01:15:25.086Z,1.20
2018-12-05T01:17:53.309Z,1.20
2018-12-05T01:20:22.333Z,1.20
2018-12-05T01:22:51.040Z,1.20
2018-12-05T01:25:19.182Z,1.30
2018-12-05T01:27:47.668Z,1.30
2018-12-05T01:30:15.900Z,1.30
2018-12-05T01:32:44.064Z,1.50
2018-12-05T01:35:12.363Z,1.50
2018-12-05T01:37:40.505Z,1.50
2018-12-05T01:40:08.822Z,1.60
2018-12-05T01:42:37.054Z,1.50
2018-12-05T01:45:05.378Z,1.50
2018-12-05T01:47:33.530Z,1.50
2018-12-05T01:50:01.854Z,1.40
2018-12-05T01:52:30.218Z,1.50
2018-12-05T01:54:58.380Z,1.50
2018-12-05T01:57:27.029Z,1.50
2018-12-05T01:59:55.240Z,1.50
2018-12-05T02:02:23.382Z,1.50
2018-12-05T02:04:51.524Z,1.50
2018-12-05T02:07:19.829Z,1.50
2018-12-05T02:09:48.350Z,1.50
2018-12-05T02:12:16.577Z,1.50
2018-12-05T02:14:44.699Z,1.50
2018-12-05T02:17:13.292Z,1.40
2018-12-05T02:19:41.451Z,1.40
2018-12-05T02:22:10.357Z,1.40
2018-12-05T02:24:38.575Z,1.40
2018-12-05T02:27:06.705Z,1.40
2018-12-05T02:29:40.653Z,1.40
2018-12-05T02:32:08.784Z,1.40
2018-12-05T02:34:37.108Z,1.50
2018-12-05T02:37:05.260Z,1.40
2018-12-05T02:39:33.597Z,1.40
2018-12-05T02:42:01.839Z,1.50
2018-12-05T02:44:30.154Z,1.50
2018-12-05T02:46:58.355Z,1.50
2018-12-05T02:49:26.685Z,1.50
2018-12-05T02:51:54.924Z,1.50
2018-12-05T02:54:23.127Z,1.50
2018-12-05T02:56:51.337Z,1.50
2018-12-05T02:59:19.507Z,1.50
2018-12-05T03:01:47.884Z,1.50
2018-12-05T03:04:16.105Z,1.40
2018-12-05T03:06:44.322Z,1.30
2018-12-05T03:09:12.653Z,1.20
2018-12-05T03:11:40.833Z,1.10
2018-12-05T03:14:09.017Z,1.10
2018-12-05T03:16:37.341Z,1.10
2018-12-05T03:19:05.569Z,1.10
2018-12-05T03:21:34.043Z,1.20
2018-12-05T03:24:02.252Z,1.10
2018-12-05T03:26:30.460Z,1.20
2018-12-05T03:28:58.618Z,1.20
2018-12-05T03:31:27.316Z,1.30
2018-12-05T03:33:55.521Z,1.30
2018-12-05T03:36:24.430Z,1.30
2018-12-05T03:38:52.627Z,1.40
2018-12-05T03:41:20.763Z,1.30
2018-12-05T03:43:49.039Z,1.30
2018-12-05T03:46:17.232Z,1.30
2018-12-05T03:48:45.503Z,1.40
2018-12-05T03:51:13.883Z,1.40
2018-12-05T03:53:42.092Z,1.30
2018-12-05T03:56:10.229Z,1.40
2018-12-05T03:58:38.436Z,1.40
2018-12-05T04:01:06.769Z,1.40
2018-12-05T04:03:34.968Z,1.50
2018-12-05T04:06:03.273Z,1.50
2018-12-05T04:08:31.400Z,1.50
2018-12-05T04:11:00.002Z,1.60
2018-12-05T04:13:28.214Z,1.50
2018-12-05T04:15:56.611Z,1.60
2018-12-05T04:18:24.769Z,1.60
2018-12-05T04:20:52.962Z,1.50
2018-12-05T04:23:21.252Z,1.50
2018-12-05T04:25:49.411Z,1.50
2018-12-05T04:28:17.618Z,1.50
2018-12-05T04:30:45.773Z,1.50
2018-12-05T04:33:13.937Z,1.50
2018-12-05T04:35:42.245Z,1.40
2018-12-05T04:38:10.454Z,1.40
2018-12-05T04:40:38.619Z,1.40
2018-12-05T04:43:06.869Z,1.40
2018-12-05T04:45:35.322Z,1.40
2018-12-05T04:48:03.444Z,1.40
2018-12-05T04:50:34.483Z,1.40
2018-12-05T04:53:02.963Z,1.40
2018-12-05T04:55:31.780Z,1.40
2018-12-05T04:57:59.979Z,1.40
2018-12-05T05:00:28.271Z,1.40
2018-12-05T05:02:56.516Z,1.40
2018-12-05T05:05:24.655Z,1.40
2018-12-05T05:07:52.975Z,1.40
2018-12-05T05:10:21.562Z,1.40
2018-12-05T05:12:49.861Z,1.40
2018-12-05T05:15:18.020Z,1.40
2018-12-05T05:17:46.385Z,1.40
2018-12-05T05:20:14.615Z,1.50
2018-12-05T05:22:42.903Z,1.50
2018-12-05T05:25:11.218Z,1.50
2018-12-05T05:27:45.706Z,1.40
2018-12-05T05:30:09.606Z,1.40
2018-12-05T05:32:37.807Z,1.40
2018-12-05T05:35:06.648Z,1.40
2018-12-05T05:37:34.799Z,1.40
2018-12-05T05:40:03.838Z,1.40
2018-12-05T05:42:32.119Z,1.30
2018-12-05T05:45:00.574Z,1.40
2018-12-05T05:47:28.777Z,1.30
2018-12-05T05:49:57.061Z,1.30
2018-12-05T05:52:25.511Z,1.20
2018-12-05T05:54:54.044Z,1.20
2018-12-05T05:57:22.170Z,1.20
2018-12-05T05:59:50.406Z,1.10
2018-12-05T06:02:20.291Z,1.10
2018-12-05T06:04:49.135Z,1.10
2018-12-05T06:07:17.653Z,1.10
2018-12-05T06:09:46.561Z,1.10
2018-12-05T06:12:14.746Z,1.10
2018-12-05T06:14:42.903Z,1.10
2018-12-05T06:17:11.025Z,1.10
2018-12-05T06:19:39.243Z,1.00
2018-12-05T06:22:07.549Z,1.00
2018-12-05T06:24:35.690Z,1.00
2018-12-05T06:27:03.973Z,1.00
2018-12-05T06:29:32.374Z,1.00
2018-12-05T06:32:00.657Z,1.00
2018-12-05T06:34:28.799Z,1.00
2018-12-05T06:36:57.023Z,1.00
2018-12-05T06:39:25.946Z,1.00
2018-12-05T06:41:54.099Z,1.10
2018-12-05T06:44:22.937Z,1.10
2018-12-05T06:46:51.124Z,1.10
2018-12-05T06:49:19.261Z,1.10
2018-12-05T06:51:47.467Z,1.10
2018-12-05T06:54:15.607Z,1.10
2018-12-05T06:56:43.958Z,1.10
2018-12-05T06:59:12.157Z,1.10
2018-12-05T07:01:40.583Z,1.10
2018-12-05T07:04:08.875Z,1.00
2018-12-05T07:06:37.026Z,1.00
2018-12-05T07:09:07.585Z,1.00
2018-12-05T07:11:35.727Z,1.00
2018-12-05T07:14:03.943Z,1.00
2018-12-05T07:16:32.193Z,1.00
2018-12-05T07:19:00.330Z,1.00
2018-12-05T07:21:28.575Z,0.90
2018-12-05T07:23:56.791Z,1.00
2018-12-05T07:26:24.982Z,1.10
2018-12-05T07:28:53.125Z,1.00
2018-12-05T07:31:21.330Z,1.00
2018-12-05T07:33:49.738Z,1.10
2018-12-05T07:36:18.631Z,1.10
2018-12-05T07:38:46.804Z,1.00
2018-12-05T07:41:14.950Z,1.10
2018-12-05T07:43:43.089Z,1.10
2018-12-05T07:46:11.564Z,1.00
2018-12-05T07:48:39.708Z,1.00
2018-12-05T07:51:07.929Z,1.00
2018-12-05T07:53:36.682Z,0.90
2018-12-05T07:56:04.885Z,1.00
2018-12-05T07:58:33.032Z,0.90
2018-12-05T08:01:01.238Z,0.90
2018-12-05T08:03:29.461Z,0.90
2018-12-05T08:05:57.647Z,0.90
2018-12-05T08:08:25.804Z,0.90
2018-12-05T08:10:54.658Z,1.00
2018-12-05T08:13:22.797Z,1.00
2018-12-05T08:15:50.944Z,1.10
2018-12-05T08:18:19.150Z,1.20
2018-12-05T08:20:47.392Z,1.40
2018-12-05T08:23:15.547Z,1.40
2018-12-05T08:25:43.878Z,1.50
2018-12-05T08:28:12.073Z,1.60
2018-12-05T08:30:40.435Z,1.70
2018-12-05T08:33:08.582Z,1.60
2018-12-05T08:35:36.719Z,1.70
2018-12-05T08:38:05.020Z,1.70
2018-12-05T08:40:33.172Z,1.60
2018-12-05T08:43:01.574Z,1.60
2018-12-05T08:45:29.874Z,1.50
2018-12-05T08:47:58.895Z,1.50
2018-12-05T08:50:27.218Z,1.50
2018-12-05T08:52:55.565Z,1.60
2018-12-05T08:55:23.806Z,1.60
2018-12-05T08:57:52.000Z,1.60
2018-12-05T09:00:20.242Z,1.70
2018-12-05T09:02:49.427Z,1.70
2018-12-05T09:05:17.701Z,1.80
2018-12-05T09:07:46.626Z,1.80
2018-12-05T09:10:14.847Z,1.90
2018-12-05T09:12:42.991Z,2.00
2018-12-05T09:15:11.268Z,2.30
2018-12-05T09:17:39.408Z,2.40
2018-12-05T09:20:07.918Z,2.60
2018-12-05T09:22:41.164Z,2.80
2018-12-05T09:25:07.561Z,3.00
2018-12-05T09:27:35.948Z,3.00
2018-12-05T09:30:05.397Z,3.20
2018-12-05T09:32:33.524Z,3.30
2018-12-05T09:35:01.750Z,3.30
2018-12-05T09:37:29.870Z,3.50
2018-12-05T09:39:58.066Z,3.60
2018-12-05T09:42:26.221Z,3.70
2018-12-05T09:44:54.863Z,3.90
2018-12-05T09:47:22.999Z,3.70
2018-12-05T09:49:51.295Z,3.90
2018-12-05T09:52:19.435Z,3.90
2018-12-05T09:54:47.581Z,3.90
2018-12-05T09:57:15.807Z,3.90
2018-12-05T09:59:43.991Z,3.70
2018-12-05T10:02:12.456Z,3.70
2018-12-05T10:04:40.727Z,3.60
2018-12-05T10:07:09.072Z,3.60
2018-12-05T10:09:40.468Z,3.60
2018-12-05T10:12:08.639Z,3.60
2018-12-05T10:14:36.916Z,3.50
2018-12-05T10:17:05.175Z,3.50
2018-12-05T10:19:33.449Z,3.50
2018-12-05T10:22:02.154Z,3.50
2018-12-05T10:24:30.444Z,3.60
2018-12-05T10:26:58.571Z,3.50
2018-12-05T10:29:26.995Z,3.60
2018-12-05T10:31:55.273Z,3.80
2018-12-05T10:34:23.424Z,3.70
2018-12-05T10:36:51.634Z,3.80
2018-12-05T10:39:19.820Z,3.70
2018-12-05T10:41:48.821Z,3.60
2018-12-05T10:44:17.031Z,3.60
2018-12-05T10:46:45.250Z,3.60
2018-12-05T10:49:13.534Z,3.70
2018-12-05T10:51:41.678Z,4.00
2018-12-05T10:54:09.854Z,4.10
2018-12-05T10:56:37.987Z,4.20
2018-12-05T10:59:06.202Z,4.20
2018-12-05T11:01:39.958Z,4.40
2018-12-05T11:04:13.920Z,4.60
2018-12-05T11:12:52.913Z,5.10
2018-12-05T11:15:26.998Z,5.20
2018-12-05T11:18:01.044Z,5.40
2018-12-05T11:20:34.995Z,5.40
2018-12-05T11:23:08.837Z,5.40
2018-12-05T11:25:37.064Z,5.20
2018-12-05T11:28:05.269Z,4.90
2018-12-05T11:30:33.423Z,4.70
2018-12-05T11:33:01.923Z,4.60
2018-12-05T11:35:30.080Z,4.60
2018-12-05T11:37:58.379Z,4.70
2018-12-05T11:40:26.720Z,4.60
2018-12-05T11:42:54.924Z,4.60
2018-12-05T11:45:23.066Z,4.70
2018-12-05T11:47:52.194Z,4.80
2018-12-05T11:50:20.318Z,4.80
2018-12-05T11:52:48.466Z,4.80
2018-12-05T11:55:16.610Z,4.70
2018-12-05T11:57:44.853Z,4.70
2018-12-05T12:00:13.031Z,4.60
2018-12-05T12:02:41.186Z,4.50
2018-12-05T12:05:09.549Z,4.40
2018-12-05T12:07:38.380Z,4.40
2018-12-05T12:10:06.702Z,4.30
2018-12-05T12:12:40.668Z,4.30
2018-12-05T12:15:10.939Z,4.30
2018-12-05T12:17:39.530Z,4.30
2018-12-05T12:20:07.804Z,4.30
2018-12-05T12:22:35.951Z,4.40
2018-12-05T12:25:04.370Z,4.30
2018-12-05T12:27:32.524Z,4.40
2018-12-05T12:30:00.664Z,4.30
2018-12-05T12:32:28.812Z,4.40
2018-12-05T12:34:57.051Z,4.40
2018-12-05T12:37:25.199Z,4.50
2018-12-05T12:39:53.352Z,4.50
2018-12-05T12:42:21.563Z,4.50
2018-12-05T12:44:49.759Z,4.60
2018-12-05T12:47:17.903Z,4.60
2018-12-05T12:49:46.048Z,4.60
2018-12-05T12:52:14.271Z,4.60
2018-12-05T12:54:42.422Z,4.60
2018-12-05T12:57:10.555Z,4.70
2018-12-05T12:59:38.731Z,4.70
2018-12-05T13:02:06.889Z,4.70
2018-12-05T13:04:35.252Z,4.70
2018-12-05T13:07:03.520Z,4.80
2018-12-05T13:09:31.833Z,4.70
2018-12-05T13:12:00.009Z,4.80
2018-12-05T13:14:28.281Z,4.80
2018-12-05T13:16:56.542Z,4.80
2018-12-05T13:19:24.683Z,4.80
2018-12-05T13:21:53.079Z,4.90
2018-12-05T13:24:21.212Z,4.90
2018-12-05T13:26:49.379Z,4.90
2018-12-05T13:29:17.555Z,5.00
2018-12-05T13:31:45.695Z,5.00
2018-12-05T13:34:13.829Z,5.00
2018-12-05T13:36:42.028Z,5.10
2018-12-05T13:39:10.295Z,5.10
2018-12-05T13:41:38.730Z,5.10
2018-12-05T13:44:07.340Z,5.20
2018-12-05T13:46:36.066Z,5.20
2018-12-05T13:49:04.410Z,5.20
2018-12-05T13:51:32.571Z,5.20
2018-12-05T13:54:00.717Z,5.20
2018-12-05T13:56:28.854Z,5.30
2018-12-05T13:58:57.111Z,5.20
2018-12-05T14:01:25.259Z,5.30
2018-12-05T14:03:53.396Z,5.30
2018-12-05T14:06:21.546Z,5.30
2018-12-05T14:08:49.745Z,5.20
2018-12-05T14:11:17.943Z,5.30
2018-12-05T14:13:46.742Z,5.20
2018-12-05T14:16:14.945Z,5.30
2018-12-05T14:18:43.134Z,5.20
2018-12-05T14:21:11.274Z,5.20
2018-12-05T14:23:39.402Z,5.20
2018-12-05T14:26:07.642Z,5.20
2018-12-05T14:28:36.883Z,5.20
2018-12-05T14:31:05.014Z,5.20
2018-12-05T14:33:34.051Z,5.20
2018-12-05T14:36:02.504Z,5.20
2018-12-05T14:38:30.643Z,5.20
2018-12-05T14:40:58.781Z,5.20
2018-12-05T14:43:27.451Z,5.20
2018-12-05T14:45:55.591Z,5.20
2018-12-05T14:48:23.844Z,5.20
2018-12-05T14:50:52.026Z,5.10
2018-12-05T14:53:20.168Z,5.10
2018-12-05T14:55:48.363Z,5.10
2018-12-05T14:58:16.789Z,5.10
2018-12-05T15:00:45.548Z,5.10
2018-12-05T15:03:13.679Z,5.10
2018-12-05T15:05:41.942Z,5.10
2018-12-05T15:08:10.086Z,5.10
2018-12-05T15:10:38.215Z,5.10
2018-12-05T15:13:06.357Z,5.10
2018-12-05T15:15:34.596Z,5.10
2018-12-05T15:18:02.742Z,5.10
2018-12-05T15:20:31.019Z,5.10
2018-12-05T15:22:59.230Z,5.10
2018-12-05T15:25:27.478Z,5.10
2018-12-05T15:27:55.624Z,5.20
2018-12-05T15:30:23.924Z,5.20
2018-12-05T15:32:52.093Z,5.20
2018-12-05T15:35:20.240Z,5.20
2018-12-05T15:37:48.594Z,5.20
2018-12-05T15:40:16.824Z,5.20
2018-12-05T15:42:45.000Z,5.20
2018-12-05T15:45:21.374Z,5.20
2018-12-05T15:47:44.173Z,5.20
2018-12-05T15:50:12.397Z,5.20
2018-12-05T15:52:40.548Z,5.20
2018-12-05T15:55:08.788Z,5.20
2018-12-05T15:57:36.944Z,5.20
2018-12-05T16:00:07.763Z,5.20
2018-12-05T16:02:36.127Z,5.20
2018-12-05T16:05:05.950Z,5.20
2018-12-05T16:07:34.082Z,5.20
2018-12-05T16:10:02.283Z,5.20
2018-12-05T16:12:30.435Z,5.20
2018-12-05T16:14:58.593Z,5.20
2018-12-05T16:17:26.800Z,5.20
2018-12-05T16:19:54.935Z,5.20
2018-12-05T16:22:23.078Z,5.20
2018-12-05T16:24:51.241Z,5.20
2018-12-05T16:27:19.411Z,5.20
2018-12-05T16:29:47.587Z,5.20
2018-12-05T16:32:15.742Z,5.20
2018-12-05T16:34:44.168Z,5.20
2018-12-05T16:37:13.052Z,5.20
2018-12-05T16:39:41.222Z,5.20
2018-12-05T16:42:09.390Z,5.20
2018-12-05T16:44:37.526Z,5.20
2018-12-05T16:47:05.688Z,5.20
2018-12-05T16:49:33.846Z,5.30
2018-12-05T16:52:02.001Z,5.30
2018-12-05T16:54:30.551Z,5.30
2018-12-05T16:56:58.701Z,5.30
2018-12-05T16:59:26.848Z,5.30
2018-12-05T17:01:55.072Z,5.30
2018-12-05T17:04:23.270Z,5.30
2018-12-05T17:06:51.455Z,5.30
2018-12-05T17:09:25.793Z,5.30
2018-12-05T17:11:49.899Z,5.20
2018-12-05T17:14:18.108Z,5.20
2018-12-05T17:16:46.251Z,5.20
2018-12-05T17:19:14.399Z,5.20
2018-12-05T17:21:42.542Z,5.20
2018-12-05T17:24:11.607Z,5.20
2018-12-05T17:26:39.835Z,5.20
2018-12-05T17:29:08.163Z,5.20
2018-12-05T17:31:37.043Z,5.20
2018-12-05T17:34:05.224Z,5.30
2018-12-05T17:36:33.385Z,5.20
2018-12-05T17:39:01.524Z,5.30
2018-12-05T17:41:29.697Z,5.30
2018-12-05T17:43:57.932Z,5.30
2018-12-05T17:46:26.067Z,5.30
2018-12-05T17:48:54.219Z,5.30
2018-12-05T17:51:22.366Z,5.30
2018-12-05T17:53:50.555Z,5.30
2018-12-05T17:56:19.257Z,5.30
2018-12-05T17:58:47.441Z,5.30
2018-12-05T18:01:15.655Z,5.40
2018-12-05T18:03:43.839Z,5.40
2018-12-05T18:06:12.102Z,5.40
2018-12-05T18:08:40.416Z,5.30
2018-12-05T18:11:08.550Z,5.40
2018-12-05T18:13:36.776Z,5.30
2018-12-05T18:16:04.927Z,5.30
2018-12-05T18:18:33.063Z,5.30
2018-12-05T18:21:01.205Z,5.30
2018-12-05T18:23:29.388Z,5.30
2018-12-05T18:25:57.553Z,5.30
2018-12-05T18:28:25.690Z,5.40
2018-12-05T18:30:54.345Z,5.30
2018-12-05T18:33:22.490Z,5.40
2018-12-05T18:35:50.624Z,5.40
2018-12-05T18:38:18.755Z,5.30
2018-12-05T18:40:46.987Z,5.40
2018-12-05T18:43:15.138Z,5.40
2018-12-05T18:45:43.288Z,5.40
2018-12-05T18:48:11.435Z,5.40
2018-12-05T18:50:39.720Z,5.40
2018-12-05T18:53:07.856Z,5.40
2018-12-05T18:55:36.099Z,5.40
2018-12-05T18:58:04.354Z,5.30
2018-12-05T19:00:32.560Z,5.40
2018-12-05T19:03:00.989Z,5.40
2018-12-05T19:05:30.017Z,5.40
2018-12-05T19:07:58.264Z,5.40
2018-12-05T19:10:26.602Z,5.40
2018-12-05T19:12:54.760Z,5.40
2018-12-05T19:15:22.978Z,5.40
2018-12-05T19:17:51.222Z,5.40
2018-12-05T19:20:19.540Z,5.40
2018-12-05T19:22:47.733Z,5.50
2018-12-05T19:25:16.027Z,5.50
2018-12-05T19:27:44.236Z,5.50
2018-12-05T19:30:12.531Z,5.50
2018-12-05T19:32:41.356Z,5.50
2018-12-05T19:35:09.623Z,5.50
2018-12-05T19:37:38.233Z,5.50
2018-12-05T19:40:06.514Z,5.50
2018-12-05T19:42:34.758Z,5.50
2018-12-05T19:45:03.003Z,5.50
2018-12-05T19:47:31.154Z,5.50
2018-12-05T19:49:59.374Z,5.50
2018-12-05T19:52:27.522Z,5.50
2018-12-05T19:54:56.566Z,5.50
2018-12-05T19:57:24.720Z,5.50
2018-12-05T19:59:52.963Z,5.50
2018-12-05T20:02:21.109Z,5.60
2018-12-05T20:04:49.253Z,5.50
2018-12-05T20:07:17.485Z,5.60
2018-12-05T20:09:45.783Z,5.60
2018-12-05T20:12:13.934Z,5.60
2018-12-05T20:14:42.176Z,5.60
2018-12-05T20:17:10.341Z,5.60
2018-12-05T20:19:38.502Z,5.60
2018-12-05T20:22:06.753Z,5.60
2018-12-05T20:24:35.016Z,5.60
2018-12-05T20:27:03.162Z,5.70
2018-12-05T20:29:31.582Z,5.70
2018-12-05T20:32:00.909Z,5.70
2018-12-05T20:34:29.054Z,5.70
2018-12-05T20:36:57.671Z,5.80
2018-12-05T20:39:26.383Z,5.80
2018-12-05T20:42:00.052Z,5.80
2018-12-05T20:44:28.300Z,5.80
2018-12-05T20:46:56.430Z,5.80
2018-12-05T20:49:24.567Z,5.80
2018-12-05T20:51:52.726Z,5.90
2018-12-05T20:54:20.868Z,5.90
2018-12-05T20:56:49.026Z,5.90
2018-12-05T20:59:18.113Z,5.90
2018-12-05T21:01:46.462Z,5.90
2018-12-05T21:04:14.812Z,5.90
2018-12-05T21:06:42.969Z,5.90
2018-12-05T21:09:11.173Z,5.90
2018-12-05T21:11:39.478Z,5.90
2018-12-05T21:14:08.948Z,5.90
2018-12-05T21:16:37.120Z,5.90
2018-12-05T21:19:05.740Z,6.00
2018-12-05T21:21:33.989Z,6.00
2018-12-05T21:24:02.162Z,6.00
2018-12-05T21:26:30.303Z,6.00
2018-12-05T21:28:58.441Z,6.00
2018-12-05T21:31:26.571Z,6.00
2018-12-05T21:33:54.713Z,6.00
2018-12-05T21:36:22.960Z,6.00
2018-12-05T21:38:51.140Z,6.10
2018-12-05T21:41:19.297Z,6.10
2018-12-05T21:43:47.784Z,6.10
2018-12-05T21:46:16.037Z,6.10
2018-12-05T21:48:50.069Z,6.10
2018-12-05T21:51:19.661Z,6.10
2018-12-05T21:53:47.795Z,6.10
2018-12-05T21:56:15.954Z,6.10
2018-12-05T21:58:44.137Z,6.10
2018-12-05T22:01:12.276Z,6.10
2018-12-05T22:03:40.431Z,6.20
2018-12-05T22:06:08.720Z,6.20
2018-12-05T22:08:36.858Z,6.20
2018-12-05T22:11:05.226Z,6.20
2018-12-05T22:13:33.498Z,6.30
2018-12-05T22:16:01.665Z,6.30
2018-12-05T22:18:29.852Z,6.30
2018-12-05T22:20:58.009Z,6.30
2018-12-05T22:23:26.150Z,6.30
2018-12-05T22:25:55.920Z,6.30
2018-12-05T22:28:24.314Z,6.40
2018-12-05T22:30:52.448Z,6.40
2018-12-05T22:33:20.596Z,6.40
2018-12-05T22:35:48.894Z,6.40
2018-12-05T22:38:17.036Z,6.40
2018-12-05T22:40:45.325Z,6.40
2018-12-05T22:43:13.568Z,6.50
2018-12-05T22:45:41.690Z,6.50
2018-12-05T22:48:09.965Z,6.40
2018-12-05T22:50:38.179Z,6.40
2018-12-05T22:53:06.375Z,6.40
2018-12-05T22:55:34.578Z,6.50
2018-12-05T22:58:02.851Z,6.50
2018-12-05T23:00:31.077Z,6.50
2018-12-05T23:02:59.251Z,6.50
2018-12-05T23:05:27.401Z,6.50
2018-12-05T23:07:55.532Z,6.50
2018-12-05T23:10:23.836Z,6.50
2018-12-05T23:12:52.052Z,6.50
2018-12-05T23:15:20.211Z,6.50
2018-12-05T23:17:48.400Z,6.50
2018-12-05T23:20:16.549Z,6.50
2018-12-05T23:22:44.699Z,6.50
2018-12-05T23:25:13.418Z,6.50
2018-12-05T23:27:41.584Z,6.50
2018-12-05T23:30:10.203Z,6.50
2018-12-05T23:32:38.474Z,6.50
2018-12-05T23:35:06.616Z,6.50
2018-12-05T23:37:34.789Z,6.50
2018-12-05T23:40:03.398Z,6.50
2018-12-05T23:42:32.431Z,6.50
2018-12-05T23:45:00.690Z,6.50
2018-12-05T23:47:29.086Z,6.50
2018-12-05T23:49:57.255Z,6.50
2018-12-05T23:52:25.458Z,6.50
2018-12-05T23:54:53.606Z,6.50
2018-12-05T23:57:24.421Z,6.60
2018-12-05T23:59:52.558Z,6.50
